sensor_id;sensor_type;location;lat;lon;timestamp;pressure;altitude;pressure_sealevel;temperature;humidity
71966;BME280;59836;52.132;5.442;2022-12-07T00:01:32;101898.28;;;3.58;94.13
71966;BME280;59836;52.132;5.442;2022-12-07T00:04:02;101899.09;;;3.58;94.23
71966;BME280;59836;52.132;5.442;2022-12-07T00:06:34;101901.53;;;3.53;94.15
71966;BME280;59836;52.132;5.442;2022-12-07T00:09:02;101900.72;;;3.52;94.36
71966;BME280;59836;52.132;5.442;2022-12-07T00:11:28;101896.56;;;3.50;94.22
71966;BME280;59836;52.132;5.442;2022-12-07T00:14:01;101904.81;;;3.48;93.88
71966;BME280;59836;52.132;5.442;2022-12-07T00:16:30;101900.88;;;3.44;94.16
71966;BME280;59836;52.132;5.442;2022-12-07T00:18:57;101894.88;;;3.42;93.50
71966;BME280;59836;52.132;5.442;2022-12-07T00:21:26;101893.59;;;3.38;93.60
71966;BME280;59836;52.132;5.442;2022-12-07T00:23:54;101897.31;;;3.37;93.32
71966;BME280;59836;52.132;5.442;2022-12-07T00:26:29;101887.78;;;3.34;93.85
71966;BME280;59836;52.132;5.442;2022-12-07T00:28:59;101885.50;;;3.31;93.42
71966;BME280;59836;52.132;5.442;2022-12-07T00:31:29;101884.88;;;3.29;93.12
71966;BME280;59836;52.132;5.442;2022-12-07T00:33:57;101881.75;;;3.25;93.48
71966;BME280;59836;52.132;5.442;2022-12-07T00:36:24;101872.69;;;3.27;93.20
71966;BME280;59836;52.132;5.442;2022-12-07T00:38:53;101873.72;;;3.25;93.72
71966;BME280;59836;52.132;5.442;2022-12-07T00:41:22;101865.03;;;3.23;93.68
71966;BME280;59836;52.132;5.442;2022-12-07T00:43:49;101877.03;;;3.28;93.83
71966;BME280;59836;52.132;5.442;2022-12-07T00:46:17;101869.22;;;3.33;94.00
71966;BME280;59836;52.132;5.442;2022-12-07T00:48:44;101858.28;;;3.34;93.75
71966;BME280;59836;52.132;5.442;2022-12-07T00:51:12;101869.84;;;3.35;93.95
71966;BME280;59836;52.132;5.442;2022-12-07T00:53:39;101865.31;;;3.35;94.08
71966;BME280;59836;52.132;5.442;2022-12-07T00:56:10;101867.81;;;3.37;94.17
71966;BME280;59836;52.132;5.442;2022-12-07T00:58:37;101865.53;;;3.34;94.00
71966;BME280;59836;52.132;5.442;2022-12-07T01:01:05;101858.50;;;3.33;93.82
71966;BME280;59836;52.132;5.442;2022-12-07T01:03:32;101859.72;;;3.30;93.50
71966;BME280;59836;52.132;5.442;2022-12-07T01:05:58;101860.94;;;3.28;93.47
71966;BME280;59836;52.132;5.442;2022-12-07T01:08:26;101856.78;;;3.25;93.53
71966;BME280;59836;52.132;5.442;2022-12-07T01:11:04;101852.66;;;3.22;93.44
71966;BME280;59836;52.132;5.442;2022-12-07T01:13:31;101860.69;;;3.22;93.29
71966;BME280;59836;52.132;5.442;2022-12-07T01:15:59;101869.13;;;3.19;93.46
71966;BME280;59836;52.132;5.442;2022-12-07T01:18:30;101858.19;;;3.21;94.03
71966;BME280;59836;52.132;5.442;2022-12-07T01:21:06;101865.66;;;3.25;93.57
71966;BME280;59836;52.132;5.442;2022-12-07T01:23:34;101869.16;;;3.26;93.93
71966;BME280;59836;52.132;5.442;2022-12-07T01:26:04;101858.25;;;3.28;93.94
71966;BME280;59836;52.132;5.442;2022-12-07T01:28:31;101867.97;;;3.29;94.25
71966;BME280;59836;52.132;5.442;2022-12-07T01:31:00;101871.28;;;3.31;93.81
71966;BME280;59836;52.132;5.442;2022-12-07T01:33:28;101866.72;;;3.31;93.60
71966;BME280;59836;52.132;5.442;2022-12-07T01:36:01;101859.72;;;3.30;93.98
71966;BME280;59836;52.132;5.442;2022-12-07T01:38:28;101867.75;;;3.30;93.86
71966;BME280;59836;52.132;5.442;2022-12-07T01:40:55;101866.94;;;3.30;94.17
71966;BME280;59836;52.132;5.442;2022-12-07T01:43:23;101869.63;;;3.30;93.50
71966;BME280;59836;52.132;5.442;2022-12-07T01:45:51;101868.97;;;3.28;93.96
71966;BME280;59836;52.132;5.442;2022-12-07T01:48:22;101870.00;;;3.27;93.92
71966;BME280;59836;52.132;5.442;2022-12-07T01:50:51;101866.06;;;3.22;93.63
71966;BME280;59836;52.132;5.442;2022-12-07T01:53:20;101869.75;;;3.21;93.39
71966;BME280;59836;52.132;5.442;2022-12-07T01:55:49;101857.78;;;3.17;93.67
71966;BME280;59836;52.132;5.442;2022-12-07T01:58:17;101867.84;;;3.15;93.53
71966;BME280;59836;52.132;5.442;2022-12-07T02:00:43;101868.25;;;3.12;93.36
71966;BME280;59836;52.132;5.442;2022-12-07T02:03:18;101870.28;;;3.10;93.13
71966;BME280;59836;52.132;5.442;2022-12-07T02:05:46;101874.84;;;3.09;93.53
71966;BME280;59836;52.132;5.442;2022-12-07T02:08:13;101877.91;;;3.06;93.26
71966;BME280;59836;52.132;5.442;2022-12-07T02:10:40;101872.72;;;3.05;93.10
71966;BME280;59836;52.132;5.442;2022-12-07T02:13:15;101869.41;;;3.03;93.26
71966;BME280;59836;52.132;5.442;2022-12-07T02:23:41;101854.66;;;3.14;93.62
71966;BME280;59836;52.132;5.442;2022-12-07T02:26:38;101858.78;;;3.16;93.82
71966;BME280;59836;52.132;5.442;2022-12-07T02:30:03;101859.44;;;3.18;94.02
71966;BME280;59836;52.132;5.442;2022-12-07T02:32:14;101857.56;;;3.19;93.96
71966;BME280;59836;52.132;5.442;2022-12-07T02:40:06;101857.63;;;3.25;94.27
71966;BME280;59836;52.132;5.442;2022-12-07T02:42:39;101857.25;;;3.29;94.01
71966;BME280;59836;52.132;5.442;2022-12-07T02:45:08;101853.53;;;3.30;94.10
71966;BME280;59836;52.132;5.442;2022-12-07T02:47:36;101847.16;;;3.31;94.23
71966;BME280;59836;52.132;5.442;2022-12-07T02:50:06;101853.13;;;3.33;94.42
71966;BME280;59836;52.132;5.442;2022-12-07T02:52:33;101849.44;;;3.34;94.54
71966;BME280;59836;52.132;5.442;2022-12-07T02:55:00;101854.19;;;3.38;94.52
71966;BME280;59836;52.132;5.442;2022-12-07T02:57:49;101859.00;;;3.43;94.37
71966;BME280;59836;52.132;5.442;2022-12-07T03:00:20;101853.22;;;3.46;94.82
71966;BME280;59836;52.132;5.442;2022-12-07T03:03:04;101849.53;;;3.47;94.99
71966;BME280;59836;52.132;5.442;2022-12-07T03:11:23;101860.88;;;3.49;94.76
71966;BME280;59836;52.132;5.442;2022-12-07T03:14:10;101861.50;;;3.51;94.72
71966;BME280;59836;52.132;5.442;2022-12-07T03:16:45;101856.78;;;3.53;94.58
71966;BME280;59836;52.132;5.442;2022-12-07T03:19:17;101846.69;;;3.56;94.89
71966;BME280;59836;52.132;5.442;2022-12-07T03:21:59;101844.63;;;3.58;94.62
71966;BME280;59836;52.132;5.442;2022-12-07T03:24:30;101847.09;;;3.59;94.65
71966;BME280;59836;52.132;5.442;2022-12-07T03:27:07;101854.75;;;3.62;94.64
71966;BME280;59836;52.132;5.442;2022-12-07T03:29:39;101844.03;;;3.62;94.85
71966;BME280;59836;52.132;5.442;2022-12-07T03:32:18;101847.94;;;3.60;94.39
71966;BME280;59836;52.132;5.442;2022-12-07T03:35:12;101850.00;;;3.58;94.74
71966;BME280;59836;52.132;5.442;2022-12-07T03:37:54;101843.38;;;3.53;94.83
71966;BME280;59836;52.132;5.442;2022-12-07T03:40:30;101836.97;;;3.54;94.44
71966;BME280;59836;52.132;5.442;2022-12-07T03:43:00;101840.69;;;3.53;94.32
71966;BME280;59836;52.132;5.442;2022-12-07T03:45:40;101831.38;;;3.49;94.54
71966;BME280;59836;52.132;5.442;2022-12-07T03:48:27;101837.13;;;3.46;94.36
71966;BME280;59836;52.132;5.442;2022-12-07T03:51:16;101827.19;;;3.40;94.19
71966;BME280;59836;52.132;5.442;2022-12-07T03:53:59;101836.84;;;3.34;94.01
71966;BME280;59836;52.132;5.442;2022-12-07T03:56:28;101834.38;;;3.33;94.20
71966;BME280;59836;52.132;5.442;2022-12-07T03:58:55;101838.72;;;3.34;94.32
71966;BME280;59836;52.132;5.442;2022-12-07T04:01:23;101842.03;;;3.36;94.27
71966;BME280;59836;52.132;5.442;2022-12-07T04:03:50;101843.28;;;3.40;94.45
71966;BME280;59836;52.132;5.442;2022-12-07T04:06:16;101837.94;;;3.40;94.14
71966;BME280;59836;52.132;5.442;2022-12-07T04:08:43;101835.63;;;3.37;94.43
71966;BME280;59836;52.132;5.442;2022-12-07T04:11:09;101834.63;;;3.38;94.21
71966;BME280;59836;52.132;5.442;2022-12-07T04:13:36;101830.91;;;3.39;94.44
71966;BME280;59836;52.132;5.442;2022-12-07T04:16:22;101827.19;;;3.40;94.47
71966;BME280;59836;52.132;5.442;2022-12-07T04:18:49;101818.94;;;3.42;94.40
71966;BME280;59836;52.132;5.442;2022-12-07T04:21:15;101820.59;;;3.43;94.58
71966;BME280;59836;52.132;5.442;2022-12-07T04:23:41;101819.41;;;3.45;94.77
71966;BME280;59836;52.132;5.442;2022-12-07T04:26:08;101819.41;;;3.45;94.91
71966;BME280;59836;52.132;5.442;2022-12-07T04:28:34;101821.44;;;3.43;94.43
71966;BME280;59836;52.132;5.442;2022-12-07T04:31:00;101826.81;;;3.43;95.10
71966;BME280;59836;52.132;5.442;2022-12-07T04:33:27;101826.19;;;3.41;94.71
71966;BME280;59836;52.132;5.442;2022-12-07T04:35:53;101828.00;;;3.40;94.43
71966;BME280;59836;52.132;5.442;2022-12-07T04:38:20;101825.53;;;3.39;94.42
71966;BME280;59836;52.132;5.442;2022-12-07T04:40:46;101814.19;;;3.37;94.48
71966;BME280;59836;52.132;5.442;2022-12-07T04:43:13;101825.09;;;3.35;94.51
71966;BME280;59836;52.132;5.442;2022-12-07T04:45:39;101817.25;;;3.34;94.48
71966;BME280;59836;52.132;5.442;2022-12-07T04:48:05;101820.56;;;3.36;94.54
71966;BME280;59836;52.132;5.442;2022-12-07T04:50:32;101821.84;;;3.40;94.40
71966;BME280;59836;52.132;5.442;2022-12-07T04:52:58;101821.44;;;3.43;94.34
71966;BME280;59836;52.132;5.442;2022-12-07T04:55:24;101821.84;;;3.47;94.74
71966;BME280;59836;52.132;5.442;2022-12-07T04:57:51;101819.00;;;3.48;94.32
71966;BME280;59836;52.132;5.442;2022-12-07T05:00:17;101818.59;;;3.51;94.64
71966;BME280;59836;52.132;5.442;2022-12-07T05:02:44;101814.91;;;3.52;94.79
71966;BME280;59836;52.132;5.442;2022-12-07T05:05:10;101812.84;;;3.54;94.51
71966;BME280;59836;52.132;5.442;2022-12-07T05:07:36;101814.69;;;3.54;94.84
71966;BME280;59836;52.132;5.442;2022-12-07T05:10:04;101800.84;;;3.50;94.04
71966;BME280;59836;52.132;5.442;2022-12-07T05:12:30;101802.28;;;3.46;94.19
71966;BME280;59836;52.132;5.442;2022-12-07T05:14:57;101792.13;;;3.42;94.01
71966;BME280;59836;52.132;5.442;2022-12-07T05:17:23;101802.44;;;3.38;93.93
71966;BME280;59836;52.132;5.442;2022-12-07T05:19:50;101802.81;;;3.35;93.99
71966;BME280;59836;52.132;5.442;2022-12-07T05:22:16;101805.91;;;3.32;93.63
71966;BME280;59836;52.132;5.442;2022-12-07T05:24:42;101810.19;;;3.26;93.50
71966;BME280;59836;52.132;5.442;2022-12-07T05:27:09;101802.75;;;3.21;93.57
71966;BME280;59836;52.132;5.442;2022-12-07T05:29:35;101810.53;;;3.16;93.45
71966;BME280;59836;52.132;5.442;2022-12-07T05:32:01;101804.13;;;3.10;93.15
71966;BME280;59836;52.132;5.442;2022-12-07T05:34:28;101801.00;;;3.07;93.28
71966;BME280;59836;52.132;5.442;2022-12-07T05:36:54;101805.09;;;3.03;93.49
71966;BME280;59836;52.132;5.442;2022-12-07T05:39:21;101810.44;;;3.03;93.32
71966;BME280;59836;52.132;5.442;2022-12-07T05:41:47;101806.31;;;3.00;93.30
71966;BME280;59836;52.132;5.442;2022-12-07T05:44:32;101803.19;;;2.97;92.96
71966;BME280;59836;52.132;5.442;2022-12-07T05:46:58;101808.94;;;2.93;93.19
71966;BME280;59836;52.132;5.442;2022-12-07T05:49:25;101811.19;;;2.90;93.03
71966;BME280;59836;52.132;5.442;2022-12-07T05:51:51;101808.69;;;2.88;93.37
71966;BME280;59836;52.132;5.442;2022-12-07T05:54:18;101814.03;;;2.88;93.25
71966;BME280;59836;52.132;5.442;2022-12-07T05:56:44;101811.38;;;2.88;93.13
71966;BME280;59836;52.132;5.442;2022-12-07T05:59:10;101806.00;;;2.88;93.78
71966;BME280;59836;52.132;5.442;2022-12-07T06:04:20;101808.69;;;2.88;93.50
71966;BME280;59836;52.132;5.442;2022-12-07T06:06:47;101814.03;;;2.88;93.59
71966;BME280;59836;52.132;5.442;2022-12-07T06:09:14;101812.00;;;2.90;93.66
71966;BME280;59836;52.132;5.442;2022-12-07T06:11:41;101810.34;;;2.89;93.48
71966;BME280;59836;52.132;5.442;2022-12-07T06:14:25;101803.31;;;2.88;93.46
71966;BME280;59836;52.132;5.442;2022-12-07T06:16:52;101812.38;;;2.87;93.73
71966;BME280;59836;52.132;5.442;2022-12-07T06:19:19;101803.53;;;2.87;93.23
71966;BME280;59836;52.132;5.442;2022-12-07T06:21:45;101814.63;;;2.84;93.70
71966;BME280;59836;52.132;5.442;2022-12-07T06:24:13;101807.41;;;2.84;93.28
71966;BME280;59836;52.132;5.442;2022-12-07T06:26:40;101813.78;;;2.83;93.44
71966;BME280;59836;52.132;5.442;2022-12-07T06:29:06;101818.13;;;2.84;93.70
71966;BME280;59836;52.132;5.442;2022-12-07T06:31:33;101815.44;;;2.84;93.81
71966;BME280;59836;52.132;5.442;2022-12-07T06:34:05;101806.22;;;2.87;93.88
71966;BME280;59836;52.132;5.442;2022-12-07T06:36:32;101810.34;;;2.89;93.97
71966;BME280;59836;52.132;5.442;2022-12-07T06:38:59;101804.97;;;2.89;94.04
71966;BME280;59836;52.132;5.442;2022-12-07T06:41:25;101814.88;;;2.89;93.93
71966;BME280;59836;52.132;5.442;2022-12-07T06:43:52;101814.03;;;2.88;93.81
71966;BME280;59836;52.132;5.442;2022-12-07T06:46:22;101820.25;;;2.89;94.10
71966;BME280;59836;52.132;5.442;2022-12-07T06:48:49;101820.66;;;2.92;94.40
71966;BME280;59836;52.132;5.442;2022-12-07T06:51:16;101818.63;;;2.94;94.20
71966;BME280;59836;52.132;5.442;2022-12-07T06:53:42;101815.94;;;2.94;93.97
71966;BME280;59836;52.132;5.442;2022-12-07T06:56:09;101815.31;;;2.92;93.77
71966;BME280;59836;52.132;5.442;2022-12-07T06:58:36;101815.69;;;2.89;93.76
71966;BME280;59836;52.132;5.442;2022-12-07T07:01:03;101816.94;;;2.87;93.57
71966;BME280;59836;52.132;5.442;2022-12-07T07:03:34;101822.69;;;2.84;93.02
71966;BME280;59836;52.132;5.442;2022-12-07T07:06:00;101812.53;;;2.79;93.26
71966;BME280;59836;52.132;5.442;2022-12-07T07:08:27;101818.91;;;2.78;93.39
71966;BME280;59836;52.132;5.442;2022-12-07T07:10:53;101818.25;;;2.76;93.25
71966;BME280;59836;52.132;5.442;2022-12-07T07:13:20;101817.63;;;2.74;93.29
71966;BME280;59836;52.132;5.442;2022-12-07T07:15:46;101822.34;;;2.72;92.93
71966;BME280;59836;52.132;5.442;2022-12-07T07:18:12;101821.72;;;2.70;93.13
71966;BME280;59836;52.132;5.442;2022-12-07T07:20:39;101820.69;;;2.71;93.35
71966;BME280;59836;52.132;5.442;2022-12-07T07:23:06;101824.78;;;2.66;93.13
71966;BME280;59836;52.132;5.442;2022-12-07T07:25:33;101831.16;;;2.65;93.19
71966;BME280;59836;52.132;5.442;2022-12-07T07:27:59;101831.56;;;2.62;92.82
71966;BME280;59836;52.132;5.442;2022-12-07T07:30:26;101817.53;;;2.60;93.04
71966;BME280;59836;52.132;5.442;2022-12-07T07:32:57;101830.69;;;2.55;93.08
71966;BME280;59836;52.132;5.442;2022-12-07T07:35:25;101823.66;;;2.54;92.85
71966;BME280;59836;52.132;5.442;2022-12-07T07:37:52;101824.03;;;2.51;93.14
71966;BME280;59836;52.132;5.442;2022-12-07T07:40:18;101813.72;;;2.48;92.84
71966;BME280;59836;52.132;5.442;2022-12-07T07:42:47;101815.75;;;2.46;92.96
71966;BME280;59836;52.132;5.442;2022-12-07T07:45:14;101820.66;;;2.42;92.76
71966;BME280;59836;52.132;5.442;2022-12-07T07:47:40;101825.34;;;2.40;92.54
71966;BME280;59836;52.132;5.442;2022-12-07T07:50:07;101820.22;;;2.39;92.87
71966;BME280;59836;52.132;5.442;2022-12-07T07:52:34;101823.91;;;2.38;92.44
71966;BME280;59836;52.132;5.442;2022-12-07T07:55:00;101822.25;;;2.36;92.97
71966;BME280;59836;52.132;5.442;2022-12-07T07:57:26;101822.88;;;2.39;92.75
71966;BME280;59836;52.132;5.442;2022-12-07T07:59:53;101822.88;;;2.39;92.78
71966;BME280;59836;52.132;5.442;2022-12-07T08:02:20;101823.53;;;2.41;93.32
71966;BME280;59836;52.132;5.442;2022-12-07T08:04:47;101829.31;;;2.44;93.13
71966;BME280;59836;52.132;5.442;2022-12-07T08:07:14;101837.16;;;2.46;93.18
71966;BME280;59836;52.132;5.442;2022-12-07T08:09:41;101833.09;;;2.50;93.64
71966;BME280;59836;52.132;5.442;2022-12-07T08:12:08;101832.72;;;2.53;93.56
71966;BME280;59836;52.132;5.442;2022-12-07T08:14:34;101838.50;;;2.57;93.66
71966;BME280;59836;52.132;5.442;2022-12-07T08:17:01;101835.00;;;2.56;93.79
71966;BME280;59836;52.132;5.442;2022-12-07T08:19:27;101843.03;;;2.56;93.58
71966;BME280;59836;52.132;5.442;2022-12-07T08:21:54;101846.34;;;2.58;93.44
71966;BME280;59836;52.132;5.442;2022-12-07T08:24:22;101845.34;;;2.59;93.58
71966;BME280;59836;52.132;5.442;2022-12-07T08:26:49;101849.28;;;2.63;93.75
71966;BME280;59836;52.132;5.442;2022-12-07T08:29:16;101845.19;;;2.68;93.56
71966;BME280;59836;52.132;5.442;2022-12-07T08:31:43;101843.59;;;2.73;93.70
71966;BME280;59836;52.132;5.442;2022-12-07T08:34:13;101839.31;;;2.79;94.35
71966;BME280;59836;52.132;5.442;2022-12-07T08:36:39;101832.16;;;2.86;94.13
71966;BME280;59836;52.132;5.442;2022-12-07T08:39:06;101827.69;;;2.93;94.50
71966;BME280;59836;52.132;5.442;2022-12-07T08:41:52;101836.63;;;3.01;94.12
71966;BME280;59836;52.132;5.442;2022-12-07T08:44:19;101839.53;;;3.06;94.42
71966;BME280;59836;52.132;5.442;2022-12-07T08:46:56;101829.69;;;3.13;94.59
71966;BME280;59836;52.132;5.442;2022-12-07T08:49:32;101831.59;;;3.19;94.53
71966;BME280;59836;52.132;5.442;2022-12-07T08:52:01;101834.13;;;3.28;94.92
71966;BME280;59836;52.132;5.442;2022-12-07T08:54:28;101829.63;;;3.35;94.89
71966;BME280;59836;52.132;5.442;2022-12-07T08:56:56;101825.53;;;3.39;94.88
71966;BME280;59836;52.132;5.442;2022-12-07T08:59:26;101828.47;;;3.44;94.67
71966;BME280;59836;52.132;5.442;2022-12-07T09:01:52;101826.03;;;3.49;94.82
71966;BME280;59836;52.132;5.442;2022-12-07T09:04:19;101836.34;;;3.52;94.72
71966;BME280;59836;52.132;5.442;2022-12-07T09:06:46;101837.16;;;3.53;94.62
71966;BME280;59836;52.132;5.442;2022-12-07T09:09:14;101833.47;;;3.54;95.02
71966;BME280;59836;52.132;5.442;2022-12-07T09:11:40;101833.06;;;3.57;94.21
71966;BME280;59836;52.132;5.442;2022-12-07T09:14:07;101840.53;;;3.62;94.36
71966;BME280;59836;52.132;5.442;2022-12-07T09:16:33;101830.63;;;3.62;94.77
71966;BME280;59836;52.132;5.442;2022-12-07T09:19:00;101832.72;;;3.67;94.58
71966;BME280;59836;52.132;5.442;2022-12-07T09:21:26;101827.97;;;3.69;94.77
71966;BME280;59836;52.132;5.442;2022-12-07T09:23:53;101831.25;;;3.71;94.02
71966;BME280;59836;52.132;5.442;2022-12-07T09:26:19;101839.75;;;3.75;94.57
71966;BME280;59836;52.132;5.442;2022-12-07T09:28:46;101838.13;;;3.80;94.55
71966;BME280;59836;52.132;5.442;2022-12-07T09:31:12;101840.00;;;3.87;94.52
71966;BME280;59836;52.132;5.442;2022-12-07T09:34:00;101837.16;;;3.95;94.39
71966;BME280;59836;52.132;5.442;2022-12-07T09:36:28;101844.41;;;4.01;94.69
71966;BME280;59836;52.132;5.442;2022-12-07T09:38:55;101836.59;;;4.06;94.10
71966;BME280;59836;52.132;5.442;2022-12-07T09:41:23;101841.53;;;4.09;94.06
71966;BME280;59836;52.132;5.442;2022-12-07T09:43:51;101836.81;;;4.11;94.23
71966;BME280;59836;52.132;5.442;2022-12-07T09:46:20;101838.28;;;4.14;94.02
71966;BME280;59836;52.132;5.442;2022-12-07T09:48:47;101831.66;;;4.17;94.23
71966;BME280;59836;52.132;5.442;2022-12-07T09:51:18;101831.25;;;4.20;93.89
71966;BME280;59836;52.132;5.442;2022-12-07T09:53:54;101832.50;;;4.24;94.17
71966;BME280;59836;52.132;5.442;2022-12-07T09:56:22;101832.91;;;4.27;93.88
71966;BME280;59836;52.132;5.442;2022-12-07T09:58:58;101830.84;;;4.29;93.52
71966;BME280;59836;52.132;5.442;2022-12-07T10:01:29;101834.16;;;4.32;94.20
71966;BME280;59836;52.132;5.442;2022-12-07T10:06:42;101818.69;;;4.34;94.05
71966;BME280;59836;52.132;5.442;2022-12-07T10:09:13;101818.50;;;4.35;93.63
71966;BME280;59836;52.132;5.442;2022-12-07T10:12:06;101825.50;;;4.36;93.73
71966;BME280;59836;52.132;5.442;2022-12-07T10:14:36;101820.16;;;4.36;93.92
71966;BME280;59836;52.132;5.442;2022-12-07T10:17:37;101809.81;;;4.33;93.28
71966;BME280;59836;52.132;5.442;2022-12-07T10:20:21;101809.41;;;4.36;93.70
71966;BME280;59836;52.132;5.442;2022-12-07T10:23:08;101801.56;;;4.41;93.65
71966;BME280;59836;52.132;5.442;2022-12-07T10:25:39;101799.72;;;4.49;93.60
71966;BME280;59836;52.132;5.442;2022-12-07T10:31:15;101795.78;;;4.65;93.66
71966;BME280;59836;52.132;5.442;2022-12-07T10:36:15;101791.47;;;4.70;93.30
71966;BME280;59836;52.132;5.442;2022-12-07T10:38:52;101794.16;;;4.70;93.20
71966;BME280;59836;52.132;5.442;2022-12-07T10:41:19;101789.19;;;4.67;93.00
71966;BME280;59836;52.132;5.442;2022-12-07T10:43:53;101783.81;;;4.67;93.37
71966;BME280;59836;52.132;5.442;2022-12-07T10:46:41;101781.53;;;4.71;93.06
71966;BME280;59836;52.132;5.442;2022-12-07T10:49:37;101778.81;;;4.78;93.47
71966;BME280;59836;52.132;5.442;2022-12-07T10:54:54;101777.56;;;5.00;93.68
71966;BME280;59836;52.132;5.442;2022-12-07T11:01:08;101780.03;;;5.09;93.26
71966;BME280;59836;52.132;5.442;2022-12-07T11:03:47;101779.00;;;5.10;92.76
71966;BME280;59836;52.132;5.442;2022-12-07T11:09:34;101764.44;;;5.51;92.15
71966;BME280;59836;52.132;5.442;2022-12-07T11:15:24;101752.41;;;5.93;90.55
71966;BME280;59836;52.132;5.442;2022-12-07T11:18:07;101761.72;;;5.97;89.93
71966;BME280;59836;52.132;5.442;2022-12-07T11:23:35;101748.94;;;5.85;88.75
71966;BME280;59836;52.132;5.442;2022-12-07T11:26:21;101752.94;;;5.76;88.95
71966;BME280;59836;52.132;5.442;2022-12-07T11:29:16;101744.94;;;5.63;89.64
71966;BME280;59836;52.132;5.442;2022-12-07T11:31:58;101745.59;;;5.51;89.45
71966;BME280;59836;52.132;5.442;2022-12-07T11:34:39;101745.22;;;5.41;89.91
71966;BME280;59836;52.132;5.442;2022-12-07T11:37:12;101748.13;;;5.32;90.35
71966;BME280;59836;52.132;5.442;2022-12-07T11:39:54;101739.06;;;5.27;90.69
71966;BME280;59836;52.132;5.442;2022-12-07T11:42:24;101745.63;;;5.38;90.31
71966;BME280;59836;52.132;5.442;2022-12-07T11:44:58;101730.94;;;5.86;89.62
71966;BME280;59836;52.132;5.442;2022-12-07T11:50:41;101725.91;;;6.54;87.48
71966;BME280;59836;52.132;5.442;2022-12-07T11:55:57;101711.00;;;6.51;86.11
71966;BME280;59836;52.132;5.442;2022-12-07T12:03:48;101716.28;;;5.75;88.54
71966;BME280;59836;52.132;5.442;2022-12-07T12:06:19;101715.06;;;5.71;88.38
71966;BME280;59836;52.132;5.442;2022-12-07T12:09:01;101713.25;;;5.65;89.06
71966;BME280;59836;52.132;5.442;2022-12-07T12:18:01;101702.09;;;5.54;89.38
71966;BME280;59836;52.132;5.442;2022-12-07T12:20:45;101700.47;;;5.53;89.89
71966;BME280;59836;52.132;5.442;2022-12-07T12:23:16;101697.16;;;5.51;89.34
71966;BME280;59836;52.132;5.442;2022-12-07T12:25:47;101697.97;;;5.52;89.74
71966;BME280;59836;52.132;5.442;2022-12-07T12:31:06;101698.75;;;5.59;88.42
71966;BME280;59836;52.132;5.442;2022-12-07T12:33:35;101684.06;;;5.61;88.66
71966;BME280;59836;52.132;5.442;2022-12-07T12:36:22;101678.25;;;5.65;88.58
71966;BME280;59836;52.132;5.442;2022-12-07T12:49:32;101663.81;;;5.84;87.83
71966;BME280;59836;52.132;5.442;2022-12-07T12:52:01;101664.22;;;5.88;87.97
71966;BME280;59836;52.132;5.442;2022-12-07T12:55:29;101669.56;;;5.95;87.42
71966;BME280;59836;52.132;5.442;2022-12-07T12:58:37;101668.31;;;5.97;87.67
71966;BME280;59836;52.132;5.442;2022-12-07T13:03:54;101667.69;;;5.95;87.43
71966;BME280;59836;52.132;5.442;2022-12-07T13:08:52;101666.50;;;5.84;87.58
71966;BME280;59836;52.132;5.442;2022-12-07T13:11:27;101656.03;;;5.76;87.40
71966;BME280;59836;52.132;5.442;2022-12-07T13:16:59;101648.28;;;5.54;87.72
71966;BME280;59836;52.132;5.442;2022-12-07T13:25:30;101642.00;;;5.28;88.51
71966;BME280;59836;52.132;5.442;2022-12-07T13:28:07;101646.41;;;5.16;89.01
71966;BME280;59836;52.132;5.442;2022-12-07T13:30:45;101645.22;;;5.05;89.09
71966;BME280;59836;52.132;5.442;2022-12-07T13:33:12;101634.09;;;4.95;89.48
71966;BME280;59836;52.132;5.442;2022-12-07T13:35:39;101635.13;;;4.87;89.79
71966;BME280;59836;52.132;5.442;2022-12-07T13:38:27;101627.91;;;4.81;90.19
71966;BME280;59836;52.132;5.442;2022-12-07T13:41:01;101617.56;;;4.78;90.57
71966;BME280;59836;52.132;5.442;2022-12-07T13:43:28;101628.31;;;4.78;90.49
71966;BME280;59836;52.132;5.442;2022-12-07T13:45:58;101624.81;;;4.77;90.91
71966;BME280;59836;52.132;5.442;2022-12-07T13:51:02;101615.97;;;4.77;90.87
71966;BME280;59836;52.132;5.442;2022-12-07T13:53:30;101619.22;;;4.79;91.53
71966;BME280;59836;52.132;5.442;2022-12-07T13:55:58;101612.81;;;4.80;91.79
71966;BME280;59836;52.132;5.442;2022-12-07T13:58:27;101618.81;;;4.82;91.94
71966;BME280;59836;52.132;5.442;2022-12-07T14:00:56;101618.38;;;4.85;91.44
71966;BME280;59836;52.132;5.442;2022-12-07T14:03:34;101614.66;;;4.86;91.99
71966;BME280;59836;52.132;5.442;2022-12-07T14:06:25;101607.22;;;4.88;92.72
71966;BME280;59836;52.132;5.442;2022-12-07T14:09:07;101607.63;;;4.92;92.56
71966;BME280;59836;52.132;5.442;2022-12-07T14:11:34;101612.56;;;4.95;92.36
71966;BME280;59836;52.132;5.442;2022-12-07T14:14:02;101595.59;;;4.94;92.60
71966;BME280;59836;52.132;5.442;2022-12-07T14:16:32;101602.22;;;4.98;92.50
71966;BME280;59836;52.132;5.442;2022-12-07T14:19:01;101600.13;;;5.00;92.33
71966;BME280;59836;52.132;5.442;2022-12-07T14:21:30;101602.63;;;5.02;92.41
71966;BME280;59836;52.132;5.442;2022-12-07T14:24:16;101590.59;;;5.05;91.98
71966;BME280;59836;52.132;5.442;2022-12-07T14:26:48;101584.81;;;5.08;92.87
71966;BME280;59836;52.132;5.442;2022-12-07T14:29:19;101584.81;;;5.08;92.43
71966;BME280;59836;52.132;5.442;2022-12-07T14:31:45;101584.81;;;5.08;92.67
71966;BME280;59836;52.132;5.442;2022-12-07T14:34:12;101584.81;;;5.08;92.78
71966;BME280;59836;52.132;5.442;2022-12-07T14:36:39;101584.19;;;5.06;92.69
71966;BME280;59836;52.132;5.442;2022-12-07T14:39:05;101581.94;;;5.02;92.09
71966;BME280;59836;52.132;5.442;2022-12-07T14:41:38;101575.50;;;5.03;92.88
71966;BME280;59836;52.132;5.442;2022-12-07T14:44:22;101578.63;;;5.00;92.63
71966;BME280;59836;52.132;5.442;2022-12-07T14:46:53;101564.56;;;4.98;92.51
71966;BME280;59836;52.132;5.442;2022-12-07T14:49:39;101576.97;;;4.99;92.70
71966;BME280;59836;52.132;5.442;2022-12-07T14:52:13;101569.16;;;4.98;92.55
71966;BME280;59836;52.132;5.442;2022-12-07T14:55:00;101575.75;;;4.95;92.33